createdAt,value
2018-08-22T00:00:00.981Z,97639.75
2018-08-22T00:02:27.998Z,97643.70
2018-08-22T00:04:54.932Z,97637.13
2018-08-22T00:07:22.155Z,97638.70
2018-08-22T00:09:49.168Z,97627.10
2018-08-22T00:12:16.168Z,97631.84
2018-08-22T00:14:43.174Z,97626.05
2018-08-22T00:17:10.147Z,97631.33
2018-08-22T00:19:37.136Z,97633.96
2018-08-22T00:22:04.129Z,97632.11
2018-08-22T00:24:31.114Z,97629.21
2018-08-22T00:26:58.154Z,97627.37
2018-08-22T00:29:25.139Z,97627.37
2018-08-22T00:31:52.145Z,97622.89
2018-08-22T00:34:19.125Z,97621.57
2018-08-22T00:36:46.313Z,97620.78
2018-08-22T00:39:13.303Z,97618.14
2018-08-22T00:41:40.270Z,97624.73
2018-08-22T00:44:07.221Z,97622.89
2018-08-22T00:46:34.365Z,97622.37
2018-08-22T00:49:01.323Z,97622.63
2018-08-22T00:51:28.296Z,97623.42
2018-08-22T00:53:55.321Z,97628.16
2018-08-22T00:56:22.282Z,97623.42
2018-08-22T00:58:49.331Z,97627.64
2018-08-22T01:01:16.268Z,97616.56
2018-08-22T01:03:43.208Z,97621.05
2018-08-22T01:06:10.164Z,97623.42
2018-08-22T01:08:37.113Z,97620.25
2018-08-22T01:11:04.093Z,97618.67
2018-08-22T01:13:31.106Z,97621.05
2018-08-22T01:15:58.115Z,97623.42
2018-08-22T01:18:25.061Z,97624.73
2018-08-22T01:20:52.048Z,97621.57
2018-08-22T01:23:19.021Z,97620.78
2018-08-22T01:25:45.978Z,97616.30
2018-08-22T01:28:12.930Z,97618.41
2018-08-22T01:30:39.899Z,97615.51
2018-08-22T01:33:06.951Z,97616.03
2018-08-22T01:35:33.901Z,97616.57
2018-08-22T01:38:00.850Z,97612.09
2018-08-22T01:40:27.806Z,97611.56
2018-08-22T01:42:54.782Z,97612.61
2018-08-22T01:45:21.802Z,97614.45
2018-08-22T01:47:48.721Z,97611.56
2018-08-22T01:50:15.639Z,97613.94
2018-08-22T01:52:42.769Z,97609.98
2018-08-22T01:55:09.737Z,97607.87
2018-08-22T01:57:36.701Z,97610.50
2018-08-22T02:00:03.681Z,97604.44
2018-08-22T02:02:30.677Z,97607.87
2018-08-22T02:04:57.711Z,97605.77
2018-08-22T02:07:24.710Z,97600.75
2018-08-22T02:09:51.712Z,97603.13
2018-08-22T02:12:18.651Z,97605.77
2018-08-22T02:14:45.638Z,97608.66
2018-08-22T02:17:12.620Z,97602.07
2018-08-22T02:19:39.594Z,97598.12
2018-08-22T02:22:06.562Z,97603.91
2018-08-22T02:24:33.554Z,97605.23
2018-08-22T02:27:00.577Z,97602.07
2018-08-22T02:29:27.520Z,97602.86
2018-08-22T02:31:54.482Z,97596.80
2018-08-22T02:34:21.492Z,97597.06
2018-08-22T02:36:48.495Z,97596.80
2018-08-22T02:39:15.446Z,97596.80
2018-08-22T02:41:42.388Z,97589.69
2018-08-22T02:44:09.313Z,97595.48
2018-08-22T02:46:36.253Z,97595.22
2018-08-22T02:49:03.228Z,97601.02
2018-08-22T02:51:30.190Z,97598.38
2018-08-22T02:53:57.202Z,97596.27
2018-08-22T02:56:24.154Z,97597.06
2018-08-22T02:58:51.170Z,97596.80
2018-08-22T03:01:18.148Z,97592.31
2018-08-22T03:03:45.219Z,97596.00
2018-08-22T03:06:12.164Z,97592.84
2018-08-22T03:08:39.235Z,97586.53
2018-08-22T03:11:06.205Z,97589.16
2018-08-22T03:13:33.150Z,97583.14
2018-08-22T03:16:00.132Z,97588.67
2018-08-22T03:18:27.069Z,97588.14
2018-08-22T03:20:54.123Z,97586.57
2018-08-22T03:23:21.207Z,97595.01
2018-08-22T03:25:48.864Z,97591.84
2018-08-22T03:28:15.818Z,97589.47
2018-08-22T03:30:42.876Z,97590.30
2018-08-22T03:33:09.840Z,97587.89
2018-08-22T03:35:36.791Z,97587.36
2018-08-22T03:38:03.796Z,97584.72
2018-08-22T03:40:31.854Z,97590.78
2018-08-22T03:42:58.878Z,97587.09
2018-08-22T03:45:25.886Z,97588.41
2018-08-22T03:47:52.775Z,97589.73
2018-08-22T03:50:19.741Z,97586.83
2018-08-22T03:52:46.712Z,97586.83
2018-08-22T03:55:13.654Z,97588.67
2018-08-22T03:57:41.256Z,97586.83
2018-08-22T04:00:08.190Z,97589.72
2018-08-22T04:02:35.604Z,97591.83
2018-08-22T04:05:02.566Z,97589.72
2018-08-22T04:07:29.503Z,97593.67
2018-08-22T04:09:56.505Z,97594.73
2018-08-22T04:12:23.479Z,97594.47
2018-08-22T04:14:50.414Z,97593.94
2018-08-22T04:17:17.337Z,97597.37
2018-08-22T04:19:44.249Z,97594.20
2018-08-22T04:22:11.211Z,97603.16
2018-08-22T04:24:38.158Z,97601.84
2018-08-22T04:27:05.169Z,97609.75
2018-08-22T04:29:32.104Z,97614.50
2018-08-22T04:31:58.986Z,97613.19
2018-08-22T04:34:25.924Z,97618.45
2018-08-22T04:36:52.930Z,97615.52
2018-08-22T04:39:19.857Z,97619.77
2018-08-22T04:41:46.803Z,97624.25
2018-08-22T04:44:13.710Z,97620.30
2018-08-22T04:46:40.661Z,97624.25
2018-08-22T04:49:07.597Z,97622.41
2018-08-22T04:51:34.494Z,97622.94
2018-08-22T04:54:01.464Z,97627.91
2018-08-22T04:56:28.424Z,97632.16
2018-08-22T04:58:55.616Z,97633.97
2018-08-22T05:01:22.607Z,97630.02
2018-08-22T05:03:49.544Z,97630.84
2018-08-22T05:06:16.502Z,97632.66
2018-08-22T05:08:43.437Z,97626.33
2018-08-22T05:11:10.378Z,97629.52
2018-08-22T05:13:39.409Z,97633.97
2018-08-22T05:16:06.549Z,97633.97
2018-08-22T05:18:33.521Z,97635.81
2018-08-22T05:21:00.481Z,97631.34
2018-08-22T05:23:27.710Z,97635.29
2018-08-22T05:25:54.701Z,97639.24
2018-08-22T05:28:21.658Z,97636.61
2018-08-22T05:30:48.615Z,97641.88
2018-08-22T05:33:15.663Z,97643.72
2018-08-22T05:35:42.582Z,97639.77
2018-08-22T05:38:09.516Z,97637.66
2018-08-22T05:40:36.540Z,97641.09
2018-08-22T05:43:03.514Z,97638.45
2018-08-22T05:45:30.647Z,97637.13
2018-08-22T05:47:57.577Z,97636.34
2018-08-22T05:50:24.490Z,97641.09
2018-08-22T05:52:51.525Z,97632.39
2018-08-22T05:55:18.496Z,97612.02
2018-08-22T05:57:45.469Z,97631.33
2018-08-22T06:00:12.386Z,97633.70
2018-08-22T06:02:39.360Z,97630.80
2018-08-22T06:05:06.265Z,97638.71
2018-08-22T06:07:33.281Z,97641.09
2018-08-22T06:10:00.299Z,97644.77
2018-08-22T06:12:27.254Z,97642.66
2018-08-22T06:14:54.337Z,97649.52
2018-08-22T06:17:21.682Z,97645.83
2018-08-22T06:19:48.816Z,97646.89
2018-08-22T06:22:15.766Z,97640.03
2018-08-22T06:24:43.177Z,97647.41
2018-08-22T06:27:10.141Z,97640.03
2018-08-22T06:29:37.098Z,97643.98
2018-08-22T06:32:04.081Z,97649.78
2018-08-22T06:34:31.128Z,97645.30
2018-08-22T06:36:58.133Z,97641.08
2018-08-22T06:39:25.166Z,97646.63
2018-08-22T06:41:52.092Z,97641.61
2018-08-22T06:44:19.186Z,97638.45
2018-08-22T06:46:46.122Z,97643.72
2018-08-22T06:49:13.099Z,97641.61
2018-08-22T06:51:40.083Z,97643.72
2018-08-22T06:54:07.040Z,97641.61
2018-08-22T06:56:33.977Z,97641.08
2018-08-22T06:59:00.914Z,97645.83
2018-08-22T07:01:27.908Z,97639.77
2018-08-22T07:03:54.874Z,97642.40
2018-08-22T07:06:21.911Z,97635.81
2018-08-22T07:08:48.837Z,97639.23
2018-08-22T07:11:15.851Z,97638.45
2018-08-22T07:13:43.061Z,97638.45
2018-08-22T07:16:10.080Z,97637.66
2018-08-22T07:18:37.000Z,97641.59
2018-08-22T07:21:05.808Z,97637.05
2018-08-22T07:23:32.665Z,97625.66
2018-08-22T07:25:59.550Z,97633.76
2018-08-22T07:28:26.492Z,97633.02
2018-08-22T07:30:53.453Z,97639.63
2018-08-22T07:33:20.457Z,97637.41
2018-08-22T07:35:47.387Z,97639.89
2018-08-22T07:38:14.303Z,97639.05
2018-08-22T07:40:41.200Z,97640.26
2018-08-22T07:43:08.443Z,97647.47
2018-08-22T07:45:35.346Z,97640.36
2018-08-22T07:48:02.313Z,97639.84
2018-08-22T07:50:29.261Z,97644.84
2018-08-22T07:53:01.485Z,97649.04
2018-08-22T07:55:28.375Z,97646.15
2018-08-22T07:57:55.356Z,97640.11
2018-08-22T08:00:22.258Z,97644.63
2018-08-22T08:02:49.183Z,97643.31
2018-08-22T08:05:16.110Z,97634.89
2018-08-22T08:07:43.068Z,97638.61
2018-08-22T08:10:09.964Z,97645.47
2018-08-22T08:12:40.914Z,97643.89
2018-08-22T08:15:07.827Z,97643.37
2018-08-22T08:17:34.734Z,97642.57
2018-08-22T08:20:01.638Z,97640.73
2018-08-22T08:22:28.549Z,97641.52
2018-08-22T08:24:55.462Z,97641.52
2018-08-22T08:27:24.372Z,97637.84
2018-08-22T08:29:51.717Z,97633.88
2018-08-22T08:32:18.987Z,97631.25
2018-08-22T08:34:45.915Z,97623.34
2018-08-22T08:37:12.815Z,97621.23
2018-08-22T08:39:39.749Z,97620.70
2018-08-22T08:42:06.658Z,97623.61
2018-08-22T08:44:33.566Z,97621.77
2018-08-22T08:47:00.485Z,97620.19
2018-08-22T08:49:28.000Z,97623.87
2018-08-22T08:51:55.207Z,97619.66
2018-08-22T08:54:22.126Z,97624.41
2018-08-22T08:56:49.046Z,97620.45
2018-08-22T08:59:15.962Z,97615.18
2018-08-22T09:01:42.889Z,97621.24
2018-08-22T09:04:09.814Z,97612.55
2018-08-22T09:06:36.771Z,97610.44
2018-08-22T09:09:04.062Z,97611.23
2018-08-22T09:11:30.975Z,97615.18
2018-08-22T09:13:57.913Z,97614.66
2018-08-22T09:16:24.805Z,97609.91
2018-08-22T09:18:51.800Z,97613.34
2018-08-22T09:21:18.745Z,97604.64
2018-08-22T09:23:45.666Z,97604.91
2018-08-22T09:26:12.572Z,97610.17
2018-08-22T09:28:39.468Z,97609.65
2018-08-22T09:31:06.396Z,97608.86
2018-08-22T09:33:33.406Z,97604.91
2018-08-22T09:36:00.319Z,97600.42
2018-08-22T09:38:27.196Z,97594.89
2018-08-22T09:40:54.217Z,97589.62
2018-08-22T09:43:21.204Z,97593.84
2018-08-22T09:45:48.040Z,97595.16
2018-08-22T09:48:14.929Z,97589.09
2018-08-22T09:50:41.833Z,97585.14
2018-08-22T09:53:08.738Z,97585.14
2018-08-22T09:55:35.650Z,97571.17
2018-08-22T09:58:02.618Z,97578.55
2018-08-22T10:00:34.892Z,97572.76
2018-08-22T10:03:01.764Z,97574.87
2018-08-22T10:05:28.662Z,97575.39
2018-08-22T10:07:55.644Z,97570.91
2018-08-22T10:10:22.530Z,97573.55
2018-08-22T10:12:49.500Z,97568.81
2018-08-22T10:15:16.388Z,97565.64
2018-08-22T10:17:43.293Z,97566.96
2018-08-22T10:20:10.189Z,97561.69
2018-08-22T10:22:37.103Z,97561.69
2018-08-22T10:25:04.022Z,97560.38
2018-08-22T10:27:30.962Z,97565.64
2018-08-22T10:29:57.962Z,97547.99
2018-08-22T10:32:24.857Z,97552.20
2018-08-22T10:34:51.770Z,97563.28
2018-08-22T10:37:18.669Z,97528.23
2018-08-22T10:39:45.579Z,97531.13
2018-08-22T10:42:12.513Z,97551.42
2018-08-22T10:44:39.411Z,97544.03
2018-08-22T10:47:06.329Z,97537.19
2018-08-22T10:49:33.240Z,97540.61
2018-08-22T10:52:00.160Z,97537.45
2018-08-22T10:54:27.070Z,97530.07
2018-08-22T10:56:54.009Z,97533.23
2018-08-22T10:59:20.922Z,97534.55
2018-08-22T11:01:47.821Z,97529.80
2018-08-22T11:04:14.716Z,97530.07
2018-08-22T11:06:41.683Z,97531.66
2018-08-22T11:09:09.563Z,97531.39
2018-08-22T11:11:36.555Z,97528.23
2018-08-22T11:14:03.556Z,97536.13
2018-08-22T11:16:30.453Z,97529.28
2018-08-22T11:18:57.348Z,97529.84
2018-08-22T11:21:24.426Z,97525.10
2018-08-22T11:23:51.470Z,97525.89
2018-08-22T11:26:18.504Z,97520.62
2018-08-22T11:28:46.004Z,97524.31
2018-08-22T11:31:12.953Z,97522.73
2018-08-22T11:33:39.909Z,97517.72
2018-08-22T11:36:06.934Z,97522.73
2018-08-22T11:38:33.902Z,97520.62
2018-08-22T11:41:00.874Z,97515.35
2018-08-22T11:43:27.889Z,97516.41
2018-08-22T11:45:55.045Z,97517.46
2018-08-22T11:48:22.025Z,97502.17
2018-08-22T11:50:49.186Z,97512.19
2018-08-22T11:53:16.257Z,97512.98
2018-08-22T11:55:43.287Z,97505.60
2018-08-22T11:58:10.447Z,97495.85
2018-08-22T12:00:37.431Z,97506.39
2018-08-22T12:03:04.352Z,97498.75
2018-08-22T12:05:31.298Z,97504.55
2018-08-22T12:07:58.284Z,97469.20
2018-08-22T12:10:29.480Z,97495.59
2018-08-22T12:12:56.494Z,97492.95
2018-08-22T12:15:23.479Z,97485.31
2018-08-22T12:17:50.398Z,97486.89
2018-08-22T12:20:17.308Z,97483.99
2018-08-22T12:22:44.197Z,97486.63
2018-08-22T12:25:11.092Z,97487.42
2018-08-22T12:27:38.173Z,97477.41
2018-08-22T12:30:05.068Z,97485.57
2018-08-22T12:32:31.953Z,97486.10
2018-08-22T12:34:58.875Z,97488.20
2018-08-22T12:37:25.778Z,97484.78
2018-08-22T12:39:52.690Z,97481.62
2018-08-22T12:42:19.585Z,97474.77
2018-08-22T12:44:46.575Z,97472.66
2018-08-22T12:47:13.498Z,97474.50
2018-08-22T12:49:40.519Z,97474.50
2018-08-22T12:52:07.513Z,97471.08
2018-08-22T12:54:34.424Z,97461.33
2018-08-22T12:57:01.325Z,97457.38
2018-08-22T12:59:28.246Z,97458.16
2018-08-22T13:01:55.196Z,97453.42
2018-08-22T13:04:22.135Z,97459.48
2018-08-22T13:06:49.035Z,97458.69
2018-08-22T13:09:15.944Z,97453.69
2018-08-22T13:11:42.870Z,97446.83
2018-08-22T13:14:09.858Z,97446.30
2018-08-22T13:16:36.777Z,97440.51
2018-08-22T13:19:03.701Z,97442.09
2018-08-22T13:21:30.613Z,97440.51
2018-08-22T13:23:57.683Z,97436.81
2018-08-22T13:26:24.581Z,97435.77
2018-08-22T13:28:51.538Z,97427.06
2018-08-22T13:31:18.429Z,97427.33
2018-08-22T13:33:45.389Z,97429.17
2018-08-22T13:36:12.345Z,97423.91
2018-08-22T13:38:39.217Z,97420.23
2018-08-22T13:41:06.134Z,97416.54
2018-08-22T13:43:33.052Z,97405.73
2018-08-22T13:45:59.972Z,97409.69
2018-08-22T13:48:26.889Z,97411.01
2018-08-22T13:50:53.792Z,97407.84
2018-08-22T13:53:20.693Z,97406.80
2018-08-22T13:55:47.627Z,97404.42
2018-08-22T13:58:14.534Z,97408.11
2018-08-22T14:00:41.541Z,97411.25
2018-08-22T14:03:09.086Z,97403.87
2018-08-22T14:05:36.147Z,97402.02
2018-08-22T14:08:03.078Z,97402.05
2018-08-22T14:10:30.114Z,97406.80
2018-08-22T14:12:57.170Z,97400.99
2018-08-22T14:15:24.090Z,97396.77
2018-08-22T14:17:51.001Z,97392.03
2018-08-22T14:20:17.902Z,97389.13
2018-08-22T14:22:44.818Z,97383.86
2018-08-22T14:25:11.725Z,97383.33
2018-08-22T14:27:38.638Z,97381.48
2018-08-22T14:30:05.533Z,97383.59
2018-08-22T14:32:32.533Z,97382.28
2018-08-22T14:34:59.449Z,97380.70
2018-08-22T14:37:26.346Z,97373.58
2018-08-22T14:39:53.399Z,97375.95
2018-08-22T14:42:20.303Z,97373.84
2018-08-22T14:44:47.244Z,97372.24
2018-08-22T14:47:14.254Z,97369.38
2018-08-22T14:49:41.171Z,97369.08
2018-08-22T14:52:08.052Z,97366.70
2018-08-22T14:54:34.961Z,97359.06
2018-08-22T14:57:01.873Z,97359.33
2018-08-22T14:59:28.776Z,97358.01
2018-08-22T15:01:55.738Z,97349.31
2018-08-22T15:04:22.685Z,97351.95
2018-08-22T15:06:49.618Z,97348.00
2018-08-22T15:09:20.644Z,97344.05
2018-08-22T15:11:47.593Z,97347.20
2018-08-22T15:14:14.504Z,97342.98
2018-08-22T15:16:41.430Z,97339.03
2018-08-22T15:19:08.357Z,97330.07
2018-08-22T15:21:35.280Z,97337.72
2018-08-22T15:24:02.187Z,97336.13
2018-08-22T15:26:29.085Z,97332.18
2018-08-22T15:28:56.032Z,97323.25
2018-08-22T15:31:22.938Z,97324.27
2018-08-22T15:33:49.841Z,97317.19
2018-08-22T15:36:16.739Z,97325.61
2018-08-22T15:38:43.679Z,97318.50
2018-08-22T15:41:10.634Z,97316.39
2018-08-22T15:43:37.512Z,97311.38
2018-08-22T15:46:04.446Z,97312.94
2018-08-22T15:48:31.466Z,97314.78
2018-08-22T15:50:58.708Z,97309.78
2018-08-22T15:53:25.698Z,97315.58
2018-08-22T15:55:52.604Z,97308.20
2018-08-22T15:58:19.524Z,97307.14
2018-08-22T16:00:49.481Z,97304.01
2018-08-22T16:03:16.384Z,97296.09
2018-08-22T16:05:44.258Z,97301.63
2018-08-22T16:08:11.854Z,97299.52
2018-08-22T16:10:38.763Z,97300.05
2018-08-22T16:13:05.670Z,97296.61
2018-08-22T16:15:32.602Z,97295.28
2018-08-22T16:17:59.509Z,97294.48
2018-08-22T16:20:27.294Z,97297.39
2018-08-22T16:22:54.417Z,97293.97
2018-08-22T16:25:21.374Z,97290.55
2018-08-22T16:27:51.706Z,97286.33
2018-08-22T16:30:19.048Z,97286.33
2018-08-22T16:32:45.945Z,97285.27
2018-08-22T16:35:12.857Z,97281.06
2018-08-22T16:37:39.873Z,97281.06
2018-08-22T16:40:06.778Z,97285.02
2018-08-22T16:42:37.790Z,97291.60
2018-08-22T16:45:04.708Z,97288.97
2018-08-22T16:47:35.049Z,97285.80
2018-08-22T16:50:01.997Z,97285.27
2018-08-22T16:52:28.888Z,97289.75
2018-08-22T16:54:55.786Z,97288.44
2018-08-22T16:57:22.674Z,97284.48
2018-08-22T16:59:49.569Z,97292.39
2018-08-22T17:02:16.474Z,97287.91
2018-08-22T17:04:43.372Z,97288.44
2018-08-22T17:07:15.673Z,97293.18
2018-08-22T17:09:42.586Z,97292.39
2018-08-22T17:12:09.485Z,97292.92
2018-08-22T17:14:36.393Z,97305.56
2018-08-22T17:17:03.324Z,97304.52
2018-08-22T17:19:30.270Z,97303.72
2018-08-22T17:21:57.194Z,97305.56
2018-08-22T17:24:24.073Z,97305.30
2018-08-22T17:26:50.994Z,97306.36
2018-08-22T17:29:17.928Z,97305.83
2018-08-22T17:31:44.902Z,97298.44
2018-08-22T17:34:12.284Z,97296.59
2018-08-22T17:36:39.457Z,97306.34
2018-08-22T17:39:06.349Z,97303.19
2018-08-22T17:41:33.270Z,97304.27
2018-08-22T17:44:05.445Z,97301.89
2018-08-22T17:46:32.361Z,97302.68
2018-08-22T17:48:59.508Z,97308.48
2018-08-22T17:51:26.546Z,97305.05
2018-08-22T17:53:53.454Z,97310.05
2018-08-22T17:56:20.896Z,97305.04
2018-08-22T17:58:47.868Z,97306.61
2018-08-22T18:01:14.825Z,97307.41
2018-08-22T18:03:41.783Z,97303.45
2018-08-22T18:06:08.676Z,97307.41
2018-08-22T18:08:35.566Z,97306.61
2018-08-22T18:11:02.456Z,97303.70
2018-08-22T18:13:29.356Z,97307.66
2018-08-22T18:15:56.256Z,97308.72
2018-08-22T18:18:23.178Z,97309.25
2018-08-22T18:20:50.720Z,97316.89
2018-08-22T18:23:18.078Z,97312.16
2018-08-22T18:26:01.951Z,97312.94
2018-08-22T18:28:29.173Z,97318.73
2018-08-22T18:30:56.130Z,97321.64
2018-08-22T18:33:23.017Z,97319.27
2018-08-22T18:35:49.957Z,97318.47
2018-08-22T18:38:16.890Z,97322.95
2018-08-22T18:40:43.838Z,97320.59
2018-08-22T18:43:10.721Z,97332.97
2018-08-22T18:45:37.648Z,97325.33
2018-08-22T18:48:05.568Z,97332.19
2018-08-22T18:50:32.487Z,97330.60
2018-08-22T18:53:00.683Z,97340.36
2018-08-22T18:55:29.720Z,97333.77
2018-08-22T18:57:57.731Z,97332.45
2018-08-22T19:00:24.632Z,97336.92
2018-08-22T19:02:52.758Z,97338.24
2018-08-22T19:05:21.909Z,97343.52
2018-08-22T19:07:49.292Z,97343.52
2018-08-22T19:10:16.944Z,97344.30
2018-08-22T19:12:43.921Z,97342.20
2018-08-22T19:15:11.406Z,97341.41
2018-08-22T19:17:38.617Z,97342.73
2018-08-22T19:20:05.623Z,97340.35
2018-08-22T19:22:32.513Z,97341.14
2018-08-22T19:25:04.407Z,97343.54
2018-08-22T19:27:32.250Z,97347.20
2018-08-22T19:29:59.610Z,97349.58
2018-08-22T19:32:26.549Z,97348.27
2018-08-22T19:34:55.203Z,97346.94
2018-08-22T19:37:22.150Z,97347.47
2018-08-22T19:39:49.236Z,97344.84
2018-08-22T19:42:16.126Z,97348.79
2018-08-22T19:44:43.817Z,97351.69
2018-08-22T19:47:10.763Z,97355.38
2018-08-22T19:49:38.010Z,97354.06
2018-08-22T19:52:04.958Z,97356.17
2018-08-22T19:54:32.164Z,97360.38
2018-08-22T19:56:59.340Z,97359.59
2018-08-22T19:59:26.820Z,97359.06
2018-08-22T20:01:54.386Z,97360.38
2018-08-22T20:04:21.599Z,97360.91
2018-08-22T20:06:48.882Z,97359.36
2018-08-22T20:09:16.347Z,97359.36
2018-08-22T20:11:43.878Z,97359.86
2018-08-22T20:14:11.736Z,97363.81
2018-08-22T20:16:38.868Z,97363.31
2018-08-22T20:19:06.055Z,97363.02
2018-08-22T20:21:34.323Z,97369.61
2018-08-22T20:24:02.246Z,97368.59
2018-08-22T20:26:29.756Z,97376.22
2018-08-22T20:28:57.979Z,97366.21
2018-08-22T20:31:25.263Z,97365.95
2018-08-22T20:33:52.879Z,97363.31
2018-08-22T20:36:20.320Z,97368.59
2018-08-22T20:38:47.411Z,97365.42
2018-08-22T20:41:14.901Z,97373.33
2018-08-22T20:43:42.202Z,97368.31
2018-08-22T20:46:09.896Z,97373.06
2018-08-22T20:48:36.977Z,97380.44
2018-08-22T20:51:04.440Z,97374.38
2018-08-22T20:53:31.902Z,97373.06
2018-08-22T20:55:59.150Z,97365.68
2018-08-22T20:58:30.492Z,97365.94
2018-08-22T21:00:57.457Z,97373.06
2018-08-22T21:03:24.357Z,97367.26
2018-08-22T21:05:51.258Z,97368.58
2018-08-22T21:08:18.401Z,97367.78
2018-08-22T21:10:45.610Z,97368.58
2018-08-22T21:13:18.954Z,97375.43
2018-08-22T21:15:46.279Z,97381.76
2018-08-22T21:18:13.526Z,97370.16
2018-08-22T21:20:40.470Z,97363.56
2018-08-22T21:23:07.362Z,97364.63
2018-08-22T21:25:34.246Z,97370.69
2018-08-22T21:28:01.153Z,97372.80
2018-08-22T21:30:28.105Z,97376.48
2018-08-22T21:32:55.030Z,97387.03
2018-08-22T21:35:24.666Z,97384.92
2018-08-22T21:37:51.598Z,97389.93
2018-08-22T21:40:18.497Z,97390.98
2018-08-22T21:42:45.415Z,97387.03
2018-08-22T21:45:12.313Z,97387.55
2018-08-22T21:47:39.234Z,97387.83
2018-08-22T21:50:06.134Z,97389.93
2018-08-22T21:52:33.035Z,97381.49
2018-08-22T21:55:00.063Z,97386.23
2018-08-22T21:57:26.872Z,97383.34
2018-08-22T21:59:59.225Z,97379.91
2018-08-22T22:02:26.217Z,97376.75
2018-08-22T22:04:54.668Z,97380.17
2018-08-22T22:07:22.410Z,97372.80
2018-08-22T22:09:49.535Z,97381.75
2018-08-22T22:12:21.682Z,97372.53
2018-08-22T22:14:49.264Z,97372.53
2018-08-22T22:17:16.404Z,97374.38
2018-08-22T22:19:43.295Z,97370.68
2018-08-22T22:22:10.200Z,97369.10
2018-08-22T22:24:39.060Z,97372.53
2018-08-22T22:27:05.945Z,97373.05
2018-08-22T22:29:33.460Z,97367.52
2018-08-22T22:32:00.519Z,97364.36
2018-08-22T22:34:27.422Z,97356.97
2018-08-22T22:36:54.332Z,97366.20
2018-08-22T22:39:25.453Z,97356.97
2018-08-22T22:41:52.326Z,97356.19
2018-08-22T22:44:19.224Z,97357.23
2018-08-22T22:46:46.118Z,97357.50
2018-08-22T22:49:12.995Z,97356.97
2018-08-22T22:51:39.903Z,97356.19
2018-08-22T22:54:06.785Z,97354.59
2018-08-22T22:56:33.686Z,97356.19
2018-08-22T22:59:00.575Z,97347.22
2018-08-22T23:01:27.518Z,97346.17
2018-08-22T23:03:54.417Z,97341.69
2018-08-22T23:06:21.308Z,97341.42
2018-08-22T23:08:48.186Z,97341.69
2018-08-22T23:11:15.100Z,97344.85
2018-08-22T23:13:41.982Z,97342.22
2018-08-22T23:16:08.880Z,97348.02
2018-08-22T23:18:35.837Z,97340.89
2018-08-22T23:21:02.688Z,97340.11
2018-08-22T23:23:44.004Z,97338.00
2018-08-22T23:26:19.723Z,97335.36
2018-08-22T23:28:46.598Z,97335.36
2018-08-22T23:31:13.488Z,97332.73
2018-08-22T23:33:40.370Z,97331.41
2018-08-22T23:36:07.285Z,97327.45
2018-08-22T23:38:36.629Z,97325.61
2018-08-22T23:41:03.896Z,97317.44
2018-08-22T23:43:30.845Z,97314.80
2018-08-22T23:45:58.425Z,97318.50
2018-08-22T23:48:30.756Z,97319.55
2018-08-22T23:50:58.828Z,97315.85
2018-08-22T23:53:25.707Z,97315.06
2018-08-22T23:55:52.640Z,97312.95
2018-08-22T23:58:19.516Z,97310.84
